createdAt,value
2018-05-13T00:02:27.901Z,37.43
2018-05-13T00:05:02.192Z,35.93
2018-05-13T00:07:36.492Z,32.63
2018-05-13T00:10:12.640Z,33.00
2018-05-13T00:12:46.953Z,33.10
2018-05-13T00:15:21.981Z,32.87
2018-05-13T00:17:56.550Z,31.93
2018-05-13T00:20:30.933Z,35.17
2018-05-13T00:23:05.380Z,34.93
2018-05-13T00:25:39.792Z,34.43
2018-05-13T00:28:14.075Z,36.00
2018-05-13T00:30:48.419Z,32.13
2018-05-13T00:33:22.732Z,37.37
2018-05-13T00:35:57.057Z,36.17
2018-05-13T00:38:31.680Z,36.37
2018-05-13T00:41:06.205Z,32.13
2018-05-13T00:43:40.648Z,40.77
2018-05-13T00:46:15.057Z,34.87
2018-05-13T00:48:49.402Z,38.17
2018-05-13T00:51:23.960Z,35.23
2018-05-13T00:53:58.609Z,36.23
2018-05-13T00:56:33.004Z,37.40
2018-05-13T00:59:07.477Z,36.33
2018-05-13T01:01:41.960Z,37.07
2018-05-13T01:04:16.396Z,35.87
2018-05-13T01:06:50.912Z,36.63
2018-05-13T01:09:25.254Z,33.37
2018-05-13T01:11:59.644Z,37.40
2018-05-13T01:14:34.174Z,33.80
2018-05-13T01:17:08.600Z,33.63
2018-05-13T01:19:43.025Z,33.23
2018-05-13T01:22:17.537Z,34.07
2018-05-13T01:24:51.864Z,35.63
2018-05-13T01:27:26.248Z,36.37
2018-05-13T01:30:01.529Z,37.70
2018-05-13T01:32:35.944Z,37.17
2018-05-13T01:35:10.452Z,33.13
2018-05-13T01:37:44.889Z,37.07
2018-05-13T01:40:19.320Z,36.00
2018-05-13T01:42:53.800Z,37.47
2018-05-13T01:45:28.220Z,34.27
2018-05-13T01:48:02.789Z,36.57
2018-05-13T01:50:37.041Z,37.40
2018-05-13T01:53:12.355Z,34.30
2018-05-13T01:55:46.635Z,37.57
2018-05-13T01:58:21.056Z,37.50
2018-05-13T02:00:55.800Z,37.90
2018-05-13T02:03:30.169Z,37.37
2018-05-13T02:06:04.593Z,36.77
2018-05-13T02:08:39.070Z,37.23
2018-05-13T02:11:13.600Z,33.63
2018-05-13T02:13:48.133Z,37.40
2018-05-13T02:16:22.529Z,37.17
2018-05-13T02:18:56.834Z,36.10
2018-05-13T02:21:31.272Z,37.63
2018-05-13T02:24:05.569Z,34.53
2018-05-13T02:26:40.624Z,34.67
2018-05-13T02:29:15.301Z,39.00
2018-05-13T02:31:49.589Z,35.90
2018-05-13T02:34:23.988Z,38.83
2018-05-13T02:36:58.400Z,36.27
2018-05-13T02:39:32.936Z,36.13
2018-05-13T02:42:08.092Z,37.13
2018-05-13T02:44:43.272Z,35.70
2018-05-13T02:47:17.652Z,35.80
2018-05-13T02:49:52.093Z,36.93
2018-05-13T02:52:26.577Z,34.80
2018-05-13T02:55:00.911Z,32.27
2018-05-13T02:57:35.527Z,35.43
2018-05-13T03:00:10.041Z,35.53
2018-05-13T03:02:44.669Z,36.93
2018-05-13T03:05:19.121Z,35.37
2018-05-13T03:07:53.497Z,32.90
2018-05-13T03:10:28.533Z,34.63
2018-05-13T03:13:02.983Z,32.87
2018-05-13T03:15:37.352Z,37.90
2018-05-13T03:18:13.364Z,36.73
2018-05-13T03:20:47.652Z,35.80
2018-05-13T03:23:22.078Z,34.60
2018-05-13T03:25:56.713Z,34.80
2018-05-13T03:28:31.224Z,39.40
2018-05-13T03:31:06.341Z,35.70
2018-05-13T03:33:42.317Z,33.80
2018-05-13T03:36:16.765Z,33.67
2018-05-13T03:38:52.173Z,30.60
2018-05-13T03:41:26.616Z,33.57
2018-05-13T03:44:01.141Z,33.53
2018-05-13T03:46:35.419Z,31.90
2018-05-13T03:49:09.850Z,35.60
2018-05-13T03:51:44.189Z,33.13
2018-05-13T03:54:18.556Z,36.80
2018-05-13T03:56:53.854Z,34.47
2018-05-13T03:59:28.373Z,34.43
2018-05-13T04:02:02.744Z,36.73
2018-05-13T04:04:37.817Z,37.43
2018-05-13T04:07:12.937Z,35.50
2018-05-13T04:09:59.139Z,33.60
2018-05-13T04:12:45.492Z,36.13
2018-05-13T04:15:25.416Z,38.43
2018-05-13T04:17:59.800Z,32.97
2018-05-13T04:20:35.017Z,31.53
2018-05-13T04:23:09.486Z,34.30
2018-05-13T04:25:43.918Z,35.27
2018-05-13T04:28:18.440Z,36.40
2018-05-13T04:30:52.692Z,33.00
2018-05-13T04:33:27.288Z,33.03
2018-05-13T04:36:01.700Z,34.00
2018-05-13T04:38:36.204Z,29.50
2018-05-13T04:41:10.576Z,25.30
2018-05-13T04:43:45.013Z,20.53
2018-05-13T04:46:20.101Z,19.33
2018-05-13T04:48:54.435Z,15.93
2018-05-13T04:51:29.045Z,13.63
2018-05-13T04:54:03.573Z,31.23
2018-05-13T04:56:37.993Z,27.77
2018-05-13T04:59:12.632Z,28.50
2018-05-13T05:01:47.028Z,28.30
2018-05-13T05:04:21.384Z,29.47
2018-05-13T05:06:56.080Z,31.37
2018-05-13T05:09:30.725Z,36.57
2018-05-13T05:12:05.160Z,29.97
2018-05-13T05:14:39.668Z,30.87
2018-05-13T05:17:14.068Z,29.50
2018-05-13T05:19:49.320Z,30.33
2018-05-13T05:22:23.964Z,31.57
2018-05-13T05:24:58.557Z,30.17
2018-05-13T05:27:32.963Z,29.60
2018-05-13T05:30:07.385Z,28.13
2018-05-13T05:32:42.032Z,29.87
2018-05-13T05:35:16.536Z,29.73
2018-05-13T05:37:50.937Z,27.23
2018-05-13T05:40:25.271Z,29.37
2018-05-13T05:42:59.704Z,30.03
2018-05-13T05:45:33.997Z,31.47
2018-05-13T05:48:08.540Z,29.27
2018-05-13T05:50:42.953Z,30.37
2018-05-13T05:53:17.316Z,29.97
2018-05-13T05:55:53.327Z,30.37
2018-05-13T05:58:27.649Z,31.33
2018-05-13T06:01:02.328Z,31.10
2018-05-13T06:03:36.811Z,31.30
2018-05-13T06:06:11.241Z,30.73
2018-05-13T06:08:45.651Z,30.40
2018-05-13T06:11:20.074Z,25.53
2018-05-13T06:13:54.584Z,28.63
2018-05-13T06:16:29.021Z,36.17
2018-05-13T06:19:03.445Z,27.70
2018-05-13T06:21:38.045Z,30.37
2018-05-13T06:24:12.476Z,30.20
2018-05-13T06:26:47.115Z,27.67
2018-05-13T06:29:21.641Z,26.33
2018-05-13T06:31:56.124Z,26.73
2018-05-13T06:34:30.360Z,31.60
2018-05-13T06:37:04.900Z,22.97
2018-05-13T06:39:39.489Z,28.83
2018-05-13T06:42:14.008Z,30.60
2018-05-13T06:44:48.570Z,29.03
2018-05-13T06:47:23.592Z,28.87
2018-05-13T06:49:58.247Z,28.30
2018-05-13T06:52:32.525Z,25.73
2018-05-13T06:55:07.072Z,23.80
2018-05-13T06:57:41.497Z,26.30
2018-05-13T07:00:16.733Z,25.00
2018-05-13T07:02:51.062Z,19.53
2018-05-13T07:05:25.350Z,26.50
2018-05-13T07:07:59.787Z,21.13
2018-05-13T07:10:34.941Z,23.13
2018-05-13T07:13:09.256Z,24.73
2018-05-13T07:15:43.708Z,26.67
2018-05-13T07:18:18.889Z,22.90
2018-05-13T07:20:53.932Z,26.13
2018-05-13T07:23:28.572Z,23.43
2018-05-13T07:26:03.067Z,23.13
2018-05-13T07:28:37.549Z,24.30
2018-05-13T07:31:11.968Z,25.33
2018-05-13T07:33:46.330Z,26.40
2018-05-13T07:36:20.736Z,25.03
2018-05-13T07:38:55.133Z,26.07
2018-05-13T07:41:29.621Z,27.10
2018-05-13T07:44:04.961Z,28.40
2018-05-13T07:46:39.291Z,23.07
2018-05-13T07:49:13.659Z,24.97
2018-05-13T07:51:48.043Z,25.77
2018-05-13T07:54:22.417Z,22.23
2018-05-13T07:56:56.947Z,18.73
2018-05-13T07:59:32.917Z,21.37
2018-05-13T08:02:07.408Z,22.73
2018-05-13T08:04:41.804Z,21.00
2018-05-13T08:07:16.261Z,18.57
2018-05-13T08:09:51.421Z,20.87
2018-05-13T08:12:26.116Z,22.23
2018-05-13T08:15:00.506Z,18.87
2018-05-13T08:17:35.592Z,20.70
2018-05-13T08:20:10.028Z,19.40
2018-05-13T08:22:44.351Z,21.47
2018-05-13T08:25:19.521Z,27.77
2018-05-13T08:27:53.908Z,24.50
2018-05-13T08:30:29.084Z,22.33
2018-05-13T08:33:04.192Z,25.23
2018-05-13T08:35:38.713Z,19.80
2018-05-13T08:38:13.220Z,13.00
2018-05-13T08:40:47.861Z,20.13
2018-05-13T08:43:23.011Z,16.83
2018-05-13T08:45:57.382Z,18.17
2018-05-13T08:48:31.728Z,12.93
2018-05-13T08:51:06.162Z,20.27
2018-05-13T08:53:40.670Z,16.33
2018-05-13T08:56:15.752Z,22.63
2018-05-13T08:58:50.048Z,18.07
2018-05-13T09:01:24.468Z,20.30
2018-05-13T09:03:59.075Z,25.60
2018-05-13T09:06:33.593Z,22.03
2018-05-13T09:09:08.125Z,23.67
2018-05-13T09:11:43.282Z,16.23
2018-05-13T09:14:17.745Z,29.70
2018-05-13T09:16:52.196Z,23.27
2018-05-13T09:19:26.720Z,22.10
2018-05-13T09:22:01.352Z,15.17
2018-05-13T09:24:35.676Z,23.87
2018-05-13T09:27:10.120Z,23.57
2018-05-13T09:29:44.545Z,22.77
2018-05-13T09:32:18.953Z,26.77
2018-05-13T09:34:53.252Z,25.30
2018-05-13T09:37:27.864Z,28.53
2018-05-13T09:40:02.177Z,26.90
2018-05-13T09:42:36.705Z,16.53
2018-05-13T09:45:11.954Z,25.57
2018-05-13T09:47:47.012Z,18.13
2018-05-13T09:50:21.312Z,25.47
2018-05-13T09:52:55.830Z,19.43
2018-05-13T09:55:30.104Z,14.47
2018-05-13T09:58:04.464Z,17.83
2018-05-13T10:00:38.988Z,18.17
2018-05-13T10:03:13.655Z,14.87
2018-05-13T10:05:48.177Z,23.43
2018-05-13T10:08:23.265Z,24.47
2018-05-13T10:10:57.697Z,27.13
2018-05-13T10:13:31.995Z,18.27
2018-05-13T10:16:06.436Z,16.37
2018-05-13T10:18:40.960Z,16.53
2018-05-13T10:21:15.581Z,18.67
2018-05-13T10:23:49.988Z,21.10
2018-05-13T10:26:24.444Z,22.23
2018-05-13T10:28:58.713Z,23.63
2018-05-13T10:31:34.089Z,23.37
2018-05-13T10:34:08.596Z,15.33
2018-05-13T10:36:42.897Z,13.60
2018-05-13T10:39:17.312Z,13.87
2018-05-13T10:41:51.656Z,21.33
2018-05-13T10:44:25.937Z,18.60
2018-05-13T10:47:00.401Z,26.50
2018-05-13T10:49:35.608Z,22.93
2018-05-13T10:52:09.972Z,12.47
2018-05-13T10:54:44.481Z,13.63
2018-05-13T10:57:19.104Z,15.03
2018-05-13T10:59:53.552Z,21.33
2018-05-13T11:02:27.877Z,10.43
2018-05-13T11:05:02.270Z,23.93
2018-05-13T11:07:36.561Z,19.23
2018-05-13T11:10:10.934Z,26.00
2018-05-13T11:12:45.292Z,11.57
2018-05-13T11:15:19.485Z,19.67
2018-05-13T11:17:53.931Z,9.77
2018-05-13T11:20:28.404Z,22.13
2018-05-13T11:23:02.698Z,20.87
2018-05-13T11:25:36.988Z,11.33
2018-05-13T11:28:11.443Z,20.17
2018-05-13T11:30:46.064Z,24.93
2018-05-13T11:33:20.496Z,18.00
2018-05-13T11:35:54.988Z,12.57
2018-05-13T11:38:29.332Z,12.67
2018-05-13T11:41:03.776Z,23.37
2018-05-13T11:43:38.223Z,21.67
2018-05-13T11:46:12.498Z,23.13
2018-05-13T11:48:46.887Z,21.40
2018-05-13T11:51:21.540Z,21.40
2018-05-13T11:53:56.030Z,25.60
2018-05-13T11:56:30.421Z,23.07
2018-05-13T11:59:04.804Z,21.53
2018-05-13T12:01:39.302Z,23.20
2018-05-13T12:04:13.722Z,21.77
2018-05-13T12:06:48.116Z,20.20
2018-05-13T12:09:22.436Z,14.00
2018-05-13T12:11:56.917Z,26.53
2018-05-13T12:14:31.327Z,26.63
2018-05-13T12:17:05.729Z,21.20
2018-05-13T12:19:40.195Z,21.77
2018-05-13T12:22:16.320Z,24.53
2018-05-13T12:24:50.847Z,20.37
2018-05-13T12:27:25.312Z,21.60
2018-05-13T12:29:59.790Z,22.87
2018-05-13T12:32:34.215Z,18.43
2018-05-13T12:35:08.496Z,23.00
2018-05-13T12:37:43.047Z,30.23
2018-05-13T12:40:17.322Z,37.43
2018-05-13T12:42:51.894Z,38.90
2018-05-13T12:45:26.186Z,47.30
2018-05-13T12:48:00.767Z,31.00
2018-05-13T12:50:35.257Z,39.43
2018-05-13T12:53:09.568Z,39.43
2018-05-13T12:55:43.895Z,39.57
2018-05-13T12:58:18.343Z,47.67
2018-05-13T13:00:52.755Z,36.13
2018-05-13T13:03:27.147Z,41.20
2018-05-13T13:06:01.545Z,42.17
2018-05-13T13:08:36.047Z,40.57
2018-05-13T13:11:11.215Z,49.73
2018-05-13T13:13:45.566Z,41.97
2018-05-13T13:16:19.851Z,25.53
2018-05-13T13:18:55.172Z,24.33
2018-05-13T13:21:29.573Z,17.50
2018-05-13T13:24:04.152Z,26.97
2018-05-13T13:26:38.421Z,16.27
2018-05-13T13:29:12.666Z,16.57
2018-05-13T13:31:47.168Z,14.37
2018-05-13T13:34:21.631Z,15.70
2018-05-13T13:36:56.261Z,16.80
2018-05-13T13:39:30.537Z,9.77
2018-05-13T13:42:05.316Z,12.70
2018-05-13T13:44:39.788Z,11.63
2018-05-13T13:47:14.923Z,16.13
2018-05-13T13:49:49.488Z,12.50
2018-05-13T13:52:23.860Z,10.07
2018-05-13T13:54:58.508Z,12.03
2018-05-13T13:57:32.970Z,9.33
2018-05-13T14:00:07.408Z,8.83
2018-05-13T14:02:41.768Z,11.20
2018-05-13T14:05:16.824Z,7.97
2018-05-13T14:07:51.175Z,6.87
2018-05-13T14:10:26.166Z,8.57
2018-05-13T14:13:00.424Z,7.50
2018-05-13T14:15:35.037Z,7.17
2018-05-13T14:18:09.414Z,9.10
2018-05-13T14:20:44.672Z,6.60
2018-05-13T14:23:19.104Z,7.27
2018-05-13T14:25:53.430Z,9.43
2018-05-13T14:28:27.759Z,7.30
2018-05-13T14:31:02.083Z,6.50
2018-05-13T14:33:37.440Z,5.87
2018-05-13T14:36:11.910Z,5.60
2018-05-13T14:38:46.411Z,7.33
2018-05-13T14:41:20.805Z,7.63
2018-05-13T14:43:55.313Z,46.60
2018-05-13T14:46:30.519Z,52.73
2018-05-13T14:49:05.066Z,55.00
2018-05-13T14:51:39.321Z,52.70
2018-05-13T14:54:13.814Z,57.57
2018-05-13T14:56:48.545Z,58.37
2018-05-13T14:59:22.817Z,62.50
2018-05-13T15:01:57.121Z,55.47
2018-05-13T15:04:31.504Z,62.20
2018-05-13T15:07:06.008Z,51.97
2018-05-13T15:09:40.283Z,53.70
2018-05-13T15:12:14.651Z,50.43
2018-05-13T15:14:49.170Z,54.83
2018-05-13T15:17:23.541Z,49.40
2018-05-13T15:19:57.933Z,51.23
2018-05-13T15:22:33.215Z,42.33
2018-05-13T15:25:07.801Z,61.37
2018-05-13T15:27:42.225Z,50.43
2018-05-13T15:30:18.161Z,50.70
2018-05-13T15:32:52.624Z,57.20
2018-05-13T15:35:27.101Z,50.57
2018-05-13T15:38:01.406Z,51.13
2018-05-13T15:40:35.729Z,47.53
2018-05-13T15:43:10.208Z,48.43
2018-05-13T15:45:44.472Z,51.27
2018-05-13T15:48:19.109Z,61.47
2018-05-13T15:50:53.616Z,54.57
2018-05-13T15:53:27.961Z,53.73
2018-05-13T15:56:02.364Z,59.63
2018-05-13T15:58:36.679Z,53.83
2018-05-13T16:01:11.624Z,54.27
2018-05-13T16:03:46.019Z,52.27
2018-05-13T16:06:20.632Z,59.80
2018-05-13T16:08:54.929Z,54.17
2018-05-13T16:11:29.285Z,55.70
2018-05-13T16:14:03.564Z,59.70
2018-05-13T16:16:38.049Z,57.97
2018-05-13T16:19:12.429Z,53.20
2018-05-13T16:21:46.721Z,57.77
2018-05-13T16:24:21.109Z,67.20
2018-05-13T16:26:55.732Z,60.27
2018-05-13T16:29:30.250Z,57.70
2018-05-13T16:32:04.748Z,63.40
2018-05-13T16:34:39.069Z,58.97
2018-05-13T16:37:13.372Z,59.13
2018-05-13T16:39:48.407Z,58.73
2018-05-13T16:42:22.718Z,64.80
2018-05-13T16:44:57.119Z,68.60
2018-05-13T16:47:31.558Z,59.20
2018-05-13T16:50:05.883Z,60.77
2018-05-13T16:52:40.193Z,60.67
2018-05-13T16:55:14.541Z,60.60
2018-05-13T16:57:49.110Z,60.07
2018-05-13T17:00:23.514Z,57.17
2018-05-13T17:02:57.912Z,60.43
2018-05-13T17:05:32.326Z,55.33
2018-05-13T17:08:06.609Z,51.77
2018-05-13T17:10:40.857Z,60.70
2018-05-13T17:13:15.408Z,56.53
2018-05-13T17:15:49.960Z,51.73
2018-05-13T17:18:24.253Z,56.57
2018-05-13T17:20:58.705Z,51.73
2018-05-13T17:23:33.088Z,55.30
2018-05-13T17:26:07.357Z,56.37
2018-05-13T17:28:41.956Z,57.37
2018-05-13T17:31:16.697Z,55.13
2018-05-13T17:33:51.281Z,58.43
2018-05-13T17:36:26.449Z,56.73
2018-05-13T17:39:01.292Z,56.93
2018-05-13T17:41:39.408Z,56.57
2018-05-13T17:44:16.808Z,66.40
2018-05-13T17:46:51.125Z,60.90
2018-05-13T17:49:25.521Z,59.03
2018-05-13T17:52:00.036Z,64.13
2018-05-13T17:54:34.516Z,53.03
2018-05-13T17:57:11.025Z,57.37
2018-05-13T17:59:45.508Z,54.50
2018-05-13T18:02:19.937Z,65.50
2018-05-13T18:04:54.285Z,59.83
2018-05-13T18:07:28.813Z,55.30
2018-05-13T18:10:03.377Z,61.10
2018-05-13T18:12:37.747Z,61.57
2018-05-13T18:15:13.627Z,56.77
2018-05-13T18:17:48.052Z,60.00
2018-05-13T18:20:23.224Z,60.43
2018-05-13T18:22:59.253Z,59.17
2018-05-13T18:25:33.591Z,60.37
2018-05-13T18:28:07.973Z,56.97
2018-05-13T18:30:42.477Z,61.67
2018-05-13T18:33:16.828Z,58.00
2018-05-13T18:35:51.340Z,62.50
2018-05-13T18:38:25.666Z,64.63
2018-05-13T18:41:00.414Z,57.20
2018-05-13T18:43:34.845Z,63.97
2018-05-13T18:46:09.440Z,62.40
2018-05-13T18:48:43.755Z,58.80
2018-05-13T18:51:18.099Z,61.93
2018-05-13T18:53:52.536Z,69.70
2018-05-13T18:56:26.910Z,64.20
2018-05-13T18:59:01.312Z,59.80
2018-05-13T19:01:35.757Z,57.50
2018-05-13T19:04:10.154Z,64.10
2018-05-13T19:06:44.484Z,63.03
2018-05-13T19:09:19.031Z,62.53
2018-05-13T19:11:53.450Z,61.67
2018-05-13T19:14:27.757Z,57.47
2018-05-13T19:17:02.156Z,53.73
2018-05-13T19:19:36.581Z,54.87
2018-05-13T19:22:11.024Z,65.73
2018-05-13T19:24:45.388Z,62.23
2018-05-13T19:27:19.800Z,63.90
2018-05-13T19:29:54.099Z,62.40
2018-05-13T19:32:28.480Z,70.60
2018-05-13T19:35:02.955Z,62.43
2018-05-13T19:37:37.238Z,62.90
2018-05-13T19:40:11.779Z,64.13
2018-05-13T19:42:46.188Z,62.93
2018-05-13T19:45:20.831Z,63.23
2018-05-13T19:47:55.338Z,67.80
2018-05-13T19:50:29.760Z,59.10
2018-05-13T19:53:04.153Z,55.30
2018-05-13T19:55:38.705Z,55.63
2018-05-13T19:58:13.098Z,54.20
2018-05-13T20:00:47.517Z,66.73
2018-05-13T20:03:22.797Z,53.77
2018-05-13T20:05:57.003Z,65.37
2018-05-13T20:08:31.509Z,58.67
2018-05-13T20:11:05.868Z,61.87
2018-05-13T20:13:40.277Z,57.80
2018-05-13T20:16:14.838Z,59.40
2018-05-13T20:18:49.278Z,60.17
2018-05-13T20:21:23.754Z,60.27
2018-05-13T20:23:58.122Z,60.23
2018-05-13T20:26:32.565Z,62.07
2018-05-13T20:29:06.890Z,60.93
2018-05-13T20:31:42.020Z,63.07
2018-05-13T20:34:16.564Z,58.60
2018-05-13T20:36:51.066Z,60.83
2018-05-13T20:39:25.369Z,62.27
2018-05-13T20:41:59.687Z,55.90
2018-05-13T20:44:34.025Z,60.63
2018-05-13T20:47:08.309Z,65.33
2018-05-13T20:49:42.894Z,55.90
2018-05-13T20:52:17.999Z,57.30
2018-05-13T20:54:52.406Z,61.63
2018-05-13T20:57:26.723Z,59.30
2018-05-13T21:00:01.034Z,61.57
2018-05-13T21:02:36.078Z,59.90
2018-05-13T21:05:10.663Z,55.33
2018-05-13T21:07:45.852Z,63.03
2018-05-13T21:10:20.199Z,62.70
2018-05-13T21:12:54.537Z,58.67
2018-05-13T21:15:28.837Z,59.83
2018-05-13T21:18:03.135Z,56.20
2018-05-13T21:20:37.593Z,57.27
2018-05-13T21:23:11.950Z,60.57
2018-05-13T21:25:46.258Z,62.50
2018-05-13T21:28:20.540Z,60.30
2018-05-13T21:30:54.867Z,63.10
2018-05-13T21:33:29.264Z,64.93
2018-05-13T21:36:03.681Z,62.60
2018-05-13T21:38:37.999Z,63.90
2018-05-13T21:41:12.509Z,67.00
2018-05-13T21:43:47.781Z,58.00
2018-05-13T21:46:22.118Z,64.20
2018-05-13T21:48:56.731Z,60.83
2018-05-13T21:51:31.132Z,61.03
2018-05-13T21:54:06.233Z,60.77
2018-05-13T21:56:40.658Z,59.07
2018-05-13T21:59:15.306Z,56.73
2018-05-13T22:01:49.789Z,60.30
2018-05-13T22:04:24.152Z,56.97
2018-05-13T22:06:58.476Z,60.70
2018-05-13T22:09:32.853Z,61.57
2018-05-13T22:12:07.159Z,58.97
2018-05-13T22:14:41.481Z,63.80
2018-05-13T22:17:15.774Z,62.63
2018-05-13T22:19:50.120Z,63.07
2018-05-13T22:22:24.532Z,73.90
2018-05-13T22:24:58.927Z,65.03
2018-05-13T22:27:33.382Z,65.90
2018-05-13T22:30:09.260Z,58.33
2018-05-13T22:32:43.709Z,58.60
2018-05-13T22:35:18.146Z,68.27
2018-05-13T22:37:53.161Z,60.17
2018-05-13T22:40:27.695Z,62.60
2018-05-13T22:43:02.201Z,70.20
2018-05-13T22:45:36.538Z,65.80
2018-05-13T22:48:11.054Z,63.83
2018-05-13T22:50:45.349Z,61.47
2018-05-13T22:53:19.787Z,60.30
2018-05-13T22:55:55.899Z,63.87
2018-05-13T22:58:30.539Z,71.13
2018-05-13T23:01:04.693Z,65.43
2018-05-13T23:03:39.098Z,68.53
2018-05-13T23:06:14.327Z,70.67
2018-05-13T23:08:48.679Z,62.70
2018-05-13T23:11:23.282Z,62.10
2018-05-13T23:13:57.719Z,66.83
2018-05-13T23:16:32.038Z,69.63
2018-05-13T23:19:06.455Z,70.30
2018-05-13T23:21:40.935Z,69.23
2018-05-13T23:24:15.237Z,63.93
2018-05-13T23:26:49.826Z,70.10
2018-05-13T23:29:25.792Z,68.60
2018-05-13T23:32:00.449Z,67.73
2018-05-13T23:34:35.082Z,65.93
2018-05-13T23:37:10.240Z,67.10
2018-05-13T23:39:44.645Z,65.97
2018-05-13T23:42:18.991Z,74.40
2018-05-13T23:44:53.368Z,67.80
2018-05-13T23:47:27.826Z,70.27
2018-05-13T23:50:02.466Z,67.87
2018-05-13T23:52:36.867Z,67.30
2018-05-13T23:55:12.108Z,71.83
2018-05-13T23:57:48.054Z,72.20
